Terminal Aerodrome Forecast
Issued by NWS Twin Cities, MN

Home | Current Version | Previous Version | Graphics & Text | Print | Product List | Glossary On
Versions: 1 2 3 4 5 6 7 8 9 10 11 12 13 14 15 16 17 18 19 20 21 22 23 24 25 26 27 28 29 30 31 32 33
000
FTUS43 KMPX 162300
TAFMSP
TAF
KMSP 162325Z 1700/1806 30012KT P6SM -SN SCT015 OVC020
      TEMPO 1700/1702 3SM -SN BKN015 OVC020
     FM171000 32007KT P6SM -SN OVC020
     FM171500 32006KT P6SM BKN025 BKN090
     FM172200 34005KT P6SM SCT025 SCT250=

USA.gov is the U.S. government's official web portal to all federal, state and local government web resources and services.